createdAt,value
2023-10-26T00:01:38.305Z,7.28
2023-10-26T00:06:39.736Z,9.30
2023-10-26T00:11:41.157Z,9.80
2023-10-26T00:16:42.692Z,10.90
2023-10-26T00:21:44.127Z,9.60
2023-10-26T00:26:45.808Z,8.73
2023-10-26T00:31:47.297Z,10.52
2023-10-26T00:36:48.990Z,10.93
2023-10-26T00:41:54.704Z,14.38
2023-10-26T00:46:56.324Z,14.63
2023-10-26T00:52:02.086Z,14.05
2023-10-26T00:57:04.888Z,19.20
2023-10-26T01:02:06.698Z,16.50
2023-10-26T01:07:08.158Z,16.35
2023-10-26T01:12:10.403Z,15.85
2023-10-26T01:17:12.573Z,13.50
2023-10-26T01:22:14.156Z,11.93
2023-10-26T01:27:15.702Z,9.32
2023-10-26T01:32:17.127Z,12.13
2023-10-26T01:37:18.676Z,11.65
2023-10-26T01:42:20.139Z,14.18
2023-10-26T01:47:22.042Z,14.82
2023-10-26T01:52:23.623Z,14.88
2023-10-26T01:57:25.618Z,15.20
2023-10-26T02:02:27.072Z,14.05
2023-10-26T02:07:28.640Z,13.00
2023-10-26T02:12:30.107Z,11.70
2023-10-26T02:17:31.963Z,15.63
2023-10-26T02:22:33.597Z,17.50
2023-10-26T02:27:35.643Z,14.82
2023-10-26T02:32:37.274Z,15.02
2023-10-26T02:37:38.807Z,15.68
2023-10-26T02:42:40.545Z,16.67
2023-10-26T02:47:42.136Z,15.57
2023-10-26T02:52:43.649Z,18.02
2023-10-26T02:57:45.273Z,18.50
2023-10-26T03:02:46.819Z,15.57
2023-10-26T03:07:48.310Z,16.05
2023-10-26T03:12:50.590Z,18.05
2023-10-26T03:17:52.289Z,18.15
2023-10-26T03:22:54.292Z,21.25
2023-10-26T03:27:55.812Z,16.55
2023-10-26T03:32:57.360Z,17.45
2023-10-26T03:37:58.905Z,18.13
2023-10-26T03:43:00.355Z,16.88
2023-10-26T03:48:01.977Z,19.65
2023-10-26T03:53:03.576Z,17.30
2023-10-26T03:58:05.082Z,15.60
2023-10-26T04:03:06.767Z,17.95
2023-10-26T04:08:08.438Z,16.70
2023-10-26T04:13:10.266Z,15.88
2023-10-26T04:18:12.172Z,17.80
2023-10-26T04:23:13.843Z,18.95
2023-10-26T04:28:16.871Z,17.08
2023-10-26T04:33:20.165Z,17.38
2023-10-26T04:38:21.782Z,17.73
2023-10-26T04:43:23.233Z,18.52
2023-10-26T04:48:24.852Z,18.65
2023-10-26T04:53:26.252Z,19.92
2023-10-26T04:58:27.669Z,16.95
2023-10-26T05:03:29.112Z,17.45
2023-10-26T05:08:30.748Z,16.60
2023-10-26T05:13:32.197Z,16.77
2023-10-26T05:18:33.738Z,16.90
2023-10-26T05:23:35.434Z,17.55
2023-10-26T05:28:37.101Z,17.70
2023-10-26T05:33:38.741Z,16.92
2023-10-26T05:38:40.216Z,15.95
2023-10-26T05:43:41.695Z,15.73
2023-10-26T05:48:43.272Z,17.63
2023-10-26T05:53:44.920Z,16.98
2023-10-26T05:58:46.310Z,17.55
2023-10-26T06:03:47.764Z,17.20
2023-10-26T06:08:49.198Z,14.82
2023-10-26T06:13:50.715Z,18.92
2023-10-26T06:18:52.282Z,15.98
2023-10-26T06:23:53.843Z,17.75
2023-10-26T06:28:55.240Z,18.58
2023-10-26T06:33:56.721Z,16.02
2023-10-26T06:38:58.308Z,18.02
2023-10-26T06:43:59.967Z,17.30
2023-10-26T06:49:06.598Z,17.23
2023-10-26T06:54:16.797Z,18.80
2023-10-26T06:59:18.458Z,21.88
2023-10-26T07:04:20.217Z,16.25
2023-10-26T07:09:22.263Z,19.73
2023-10-26T07:14:23.835Z,17.05
2023-10-26T07:19:25.263Z,17.70
2023-10-26T07:24:26.924Z,18.00
2023-10-26T07:29:28.353Z,17.23
2023-10-26T07:34:29.827Z,19.58
2023-10-26T07:39:45.002Z,17.15
2023-10-26T07:44:52.518Z,17.95
2023-10-26T07:49:53.967Z,17.88
2023-10-26T07:54:55.441Z,18.63
2023-10-26T07:59:56.981Z,18.63
2023-10-26T08:04:58.412Z,18.30
2023-10-26T08:09:59.905Z,22.00
2023-10-26T08:16:10.577Z,23.13
2023-10-26T08:20:23.329Z,19.48
2023-10-26T08:25:26.029Z,22.00
2023-10-26T08:30:27.889Z,20.65
2023-10-26T08:35:29.334Z,22.83
2023-10-26T08:40:31.355Z,21.63
2023-10-26T08:45:34.881Z,20.98
2023-10-26T08:50:36.563Z,22.80
2023-10-26T08:55:40.424Z,22.63
2023-10-26T09:00:41.993Z,22.90
2023-10-26T09:05:54.421Z,23.67
2023-10-26T09:10:55.988Z,33.25
2023-10-26T09:15:59.898Z,22.40
2023-10-26T09:21:09.206Z,22.30
2023-10-26T09:26:18.210Z,24.92
2023-10-26T09:31:24.050Z,24.40
2023-10-26T09:36:25.570Z,23.95
2023-10-26T09:41:27.192Z,23.75
2023-10-26T09:46:29.515Z,22.02
2023-10-26T09:51:31.157Z,22.02
2023-10-26T09:56:34.285Z,25.55
2023-10-26T10:01:37.479Z,22.30
2023-10-26T10:06:49.077Z,24.42
2023-10-26T10:12:06.046Z,24.15
2023-10-26T10:17:07.603Z,20.33
2023-10-26T10:22:37.064Z,20.67
2023-10-26T10:27:39.382Z,20.10
2023-10-26T10:32:44.327Z,20.90
2023-10-26T10:38:13.695Z,20.67
2023-10-26T10:43:15.326Z,18.73
2023-10-26T10:48:16.775Z,14.52
2023-10-26T10:53:18.233Z,16.67
2023-10-26T10:58:19.733Z,20.00
2023-10-26T11:03:22.857Z,17.27
2023-10-26T11:08:24.734Z,20.48
2023-10-26T11:13:26.189Z,18.58
2023-10-26T11:18:27.942Z,18.05
2023-10-26T11:23:29.461Z,15.85
2023-10-26T11:28:34.402Z,15.85
2023-10-26T11:33:40.229Z,15.75
2023-10-26T11:38:52.097Z,16.95
2023-10-26T11:43:53.567Z,17.25
2023-10-26T11:48:55.091Z,16.77
2023-10-26T11:53:57.742Z,15.82
2023-10-26T11:58:59.167Z,14.63
2023-10-26T12:04:00.705Z,16.52
2023-10-26T12:09:02.267Z,15.52
2023-10-26T12:14:03.719Z,14.20
2023-10-26T12:19:05.213Z,13.15
2023-10-26T12:24:06.964Z,13.20
2023-10-26T12:29:08.411Z,11.95
2023-10-26T12:34:10.136Z,13.45
2023-10-26T12:39:11.720Z,12.40
2023-10-26T12:44:13.221Z,11.10
2023-10-26T12:49:14.694Z,13.10
2023-10-26T12:54:16.731Z,10.57
2023-10-26T12:59:18.183Z,12.73
2023-10-26T13:04:19.731Z,10.55
2023-10-26T13:09:21.626Z,9.45
2023-10-26T13:14:23.186Z,9.00
2023-10-26T13:19:24.728Z,9.68
2023-10-26T13:24:26.217Z,9.30
2023-10-26T13:29:27.635Z,9.05
2023-10-26T13:34:29.169Z,10.80
2023-10-26T13:39:30.694Z,11.10
2023-10-26T13:44:32.259Z,12.15
2023-10-26T13:49:34.023Z,9.07
2023-10-26T13:54:36.281Z,10.32
2023-10-26T13:59:37.747Z,10.10
2023-10-26T14:04:40.299Z,16.85
2023-10-26T14:09:42.197Z,10.20
2023-10-26T14:14:43.803Z,10.57
2023-10-26T14:19:45.390Z,8.73
2023-10-26T14:24:47.216Z,8.85
2023-10-26T14:29:48.673Z,9.40
2023-10-26T14:34:50.327Z,10.77
2023-10-26T14:39:52.403Z,10.02
2023-10-26T14:44:53.922Z,10.02
2023-10-26T14:49:55.550Z,11.73
2023-10-26T14:54:57.179Z,10.57
2023-10-26T14:59:58.684Z,7.72
2023-10-26T15:05:00.194Z,7.10
2023-10-26T15:10:24.375Z,6.22
2023-10-26T15:15:24.491Z,6.13
2023-10-26T15:20:25.964Z,4.43
2023-10-26T15:25:27.533Z,5.82
2023-10-26T15:30:29.125Z,10.40
2023-10-26T15:35:31.314Z,5.85
2023-10-26T15:40:32.775Z,8.50
2023-10-26T15:45:34.338Z,5.30
2023-10-26T15:50:35.919Z,4.93
2023-10-26T15:55:37.479Z,4.45
2023-10-26T16:00:38.983Z,7.40
2023-10-26T16:05:40.449Z,5.78
2023-10-26T16:10:41.890Z,5.63
2023-10-26T16:15:43.369Z,5.22
2023-10-26T16:20:44.831Z,6.47
2023-10-26T16:25:46.969Z,6.72
2023-10-26T16:30:48.577Z,8.02
2023-10-26T16:35:50.272Z,6.55
2023-10-26T16:40:52.413Z,6.63
2023-10-26T16:45:56.479Z,6.82
2023-10-26T16:50:58.050Z,7.13
2023-10-26T16:56:04.993Z,8.02
2023-10-26T17:01:08.466Z,6.43
2023-10-26T17:06:10.276Z,7.45
2023-10-26T17:11:11.933Z,8.05
2023-10-26T17:16:13.452Z,7.30
2023-10-26T17:21:14.963Z,10.52
2023-10-26T17:26:16.383Z,8.98
2023-10-26T17:31:18.327Z,9.47
2023-10-26T17:36:19.795Z,8.45
2023-10-26T17:41:22.082Z,8.00
2023-10-26T17:46:23.841Z,7.70
2023-10-26T17:51:25.630Z,8.68
2023-10-26T17:56:27.159Z,10.90
2023-10-26T18:01:28.767Z,13.80
2023-10-26T18:06:30.335Z,10.73
2023-10-26T18:11:32.390Z,11.30
2023-10-26T18:16:33.961Z,9.35
2023-10-26T18:21:35.506Z,11.32
2023-10-26T18:26:36.978Z,9.30
2023-10-26T18:31:38.521Z,8.20
2023-10-26T18:36:40.449Z,7.80
2023-10-26T18:41:42.221Z,7.53
2023-10-26T18:46:43.664Z,8.32
2023-10-26T18:51:45.134Z,9.43
2023-10-26T18:56:46.584Z,8.13
2023-10-26T19:01:48.054Z,10.35
2023-10-26T19:06:49.579Z,8.43
2023-10-26T19:11:51.224Z,8.10
2023-10-26T19:16:52.752Z,8.18
2023-10-26T19:21:54.370Z,10.32
2023-10-26T19:26:55.970Z,8.70
2023-10-26T19:31:57.473Z,10.93
2023-10-26T19:36:58.998Z,8.77
2023-10-26T19:42:00.504Z,10.55
2023-10-26T19:47:02.121Z,8.73
2023-10-26T19:52:04.367Z,10.13
2023-10-26T19:57:05.797Z,8.18
2023-10-26T20:02:08.054Z,8.18
2023-10-26T20:07:09.566Z,8.38
2023-10-26T20:12:10.964Z,8.52
2023-10-26T20:17:12.610Z,8.95
2023-10-26T20:22:14.154Z,9.60
2023-10-26T20:27:16.353Z,13.23
2023-10-26T20:32:18.307Z,9.27
2023-10-26T20:37:19.768Z,10.90
2023-10-26T20:42:22.477Z,9.60
2023-10-26T20:47:23.948Z,10.90
2023-10-26T20:52:25.399Z,10.77
2023-10-26T20:57:26.805Z,16.55
2023-10-26T21:02:28.255Z,10.35
2023-10-26T21:07:29.696Z,11.77
2023-10-26T21:12:31.599Z,11.88
2023-10-26T21:17:33.502Z,9.43
2023-10-26T21:22:35.799Z,12.52
2023-10-26T21:27:37.515Z,10.48
2023-10-26T21:32:38.923Z,9.95
2023-10-26T21:37:40.415Z,10.55
2023-10-26T21:42:41.825Z,15.95
2023-10-26T21:47:43.294Z,10.60
2023-10-26T21:52:44.931Z,9.40
2023-10-26T21:57:46.416Z,11.35
2023-10-26T22:02:48.030Z,11.88
2023-10-26T22:07:50.478Z,12.90
2023-10-26T22:12:51.912Z,11.32
2023-10-26T22:17:53.453Z,10.05
2023-10-26T22:22:54.887Z,8.88
2023-10-26T22:27:56.420Z,13.18
2023-10-26T22:32:57.858Z,9.60
2023-10-26T22:37:59.332Z,10.18
2023-10-26T22:43:00.820Z,9.40
2023-10-26T22:48:02.918Z,10.73
2023-10-26T22:53:04.571Z,10.35
2023-10-26T22:58:06.009Z,10.30
2023-10-26T23:03:07.566Z,11.48
2023-10-26T23:08:09.283Z,11.35
2023-10-26T23:13:10.794Z,10.38
2023-10-26T23:18:12.324Z,11.85
2023-10-26T23:23:13.897Z,15.30
2023-10-26T23:28:15.381Z,10.68
2023-10-26T23:33:16.820Z,11.05
2023-10-26T23:38:18.351Z,12.52
2023-10-26T23:43:19.833Z,11.38
2023-10-26T23:48:22.270Z,8.38
2023-10-26T23:53:23.778Z,9.63
2023-10-26T23:58:25.343Z,8.50
